createdAt,value
2018-12-29T00:00:38.579Z,8.90
2018-12-29T00:03:08.301Z,8.77
2018-12-29T00:05:37.607Z,6.47
2018-12-29T00:08:07.140Z,8.97
2018-12-29T00:10:36.222Z,9.57
2018-12-29T00:13:05.441Z,8.90
2018-12-29T00:15:34.480Z,8.37
2018-12-29T00:18:03.979Z,8.00
2018-12-29T00:20:33.200Z,9.00
2018-12-29T00:23:02.339Z,10.13
2018-12-29T00:25:31.663Z,8.63
2018-12-29T00:28:01.261Z,8.23
2018-12-29T00:30:30.740Z,11.60
2018-12-29T00:33:00.321Z,8.50
2018-12-29T00:35:29.960Z,8.23
2018-12-29T00:37:59.420Z,10.40
2018-12-29T00:40:28.706Z,7.93
2018-12-29T00:42:58.249Z,10.03
2018-12-29T00:45:27.361Z,11.33
2018-12-29T00:47:57.454Z,9.03
2018-12-29T00:50:26.882Z,9.67
2018-12-29T00:52:56.323Z,8.47
2018-12-29T00:55:25.941Z,9.13
2018-12-29T00:57:55.423Z,8.73
2018-12-29T01:00:24.382Z,8.63
2018-12-29T01:02:53.543Z,11.57
2018-12-29T01:05:23.386Z,12.33
2018-12-29T01:07:52.943Z,11.17
2018-12-29T01:10:22.620Z,10.60
2018-12-29T01:12:51.979Z,9.70
2018-12-29T01:15:21.779Z,12.00
2018-12-29T01:17:51.361Z,10.37
2018-12-29T01:20:23.061Z,10.00
2018-12-29T01:22:53.079Z,11.57
2018-12-29T01:25:22.821Z,9.47
2018-12-29T01:27:51.999Z,11.13
2018-12-29T01:30:21.540Z,12.87
2018-12-29T01:32:50.880Z,9.73
2018-12-29T01:35:20.499Z,12.07
2018-12-29T01:37:50.718Z,10.80
2018-12-29T01:40:20.161Z,11.77
2018-12-29T01:42:49.499Z,10.90
2018-12-29T01:45:18.780Z,12.83
2018-12-29T01:47:48.119Z,11.90
2018-12-29T01:50:17.598Z,12.17
2018-12-29T01:52:47.320Z,11.27
2018-12-29T01:55:16.559Z,13.63
2018-12-29T01:57:45.960Z,13.50
2018-12-29T02:00:15.137Z,11.03
2018-12-29T02:02:44.862Z,15.37
2018-12-29T02:05:14.280Z,14.40
2018-12-29T02:07:43.680Z,12.80
2018-12-29T02:10:13.105Z,14.00
2018-12-29T02:12:42.449Z,15.60
2018-12-29T02:15:11.921Z,17.33
2018-12-29T02:17:41.362Z,14.80
2018-12-29T02:20:10.642Z,14.10
2018-12-29T02:22:40.001Z,15.17
2018-12-29T02:25:09.421Z,16.53
2018-12-29T02:27:40.101Z,15.77
2018-12-29T02:30:12.403Z,15.03
2018-12-29T02:32:41.867Z,17.93
2018-12-29T02:35:11.221Z,17.63
2018-12-29T02:37:40.898Z,15.27
2018-12-29T02:40:10.180Z,18.30
2018-12-29T02:42:39.488Z,16.43
2018-12-29T02:45:08.820Z,18.27
2018-12-29T02:47:38.238Z,18.23
2018-12-29T02:50:07.727Z,17.40
2018-12-29T02:52:37.401Z,20.10
2018-12-29T02:55:06.920Z,16.73
2018-12-29T02:57:36.200Z,21.20
2018-12-29T03:00:06.525Z,20.23
2018-12-29T03:02:36.048Z,19.67
2018-12-29T03:05:05.968Z,19.07
2018-12-29T03:07:35.030Z,21.37
2018-12-29T03:10:05.067Z,17.27
2018-12-29T03:12:34.889Z,23.00
2018-12-29T03:15:04.327Z,22.87
2018-12-29T03:17:39.932Z,24.80
2018-12-29T03:20:09.428Z,22.97
2018-12-29T03:22:38.647Z,21.03
2018-12-29T03:25:07.871Z,19.40
2018-12-29T03:27:37.300Z,20.63
2018-12-29T03:30:08.221Z,20.43
2018-12-29T03:32:38.082Z,21.57
2018-12-29T03:35:08.020Z,21.97
2018-12-29T03:37:37.001Z,21.43
2018-12-29T03:40:07.442Z,22.43
2018-12-29T03:42:36.799Z,20.17
2018-12-29T03:45:07.480Z,19.07
2018-12-29T03:47:36.601Z,22.47
2018-12-29T03:50:09.922Z,20.67
2018-12-29T03:52:39.728Z,20.87
2018-12-29T03:55:09.121Z,21.90
2018-12-29T03:57:38.559Z,19.93
2018-12-29T04:00:08.178Z,21.80
2018-12-29T04:02:37.663Z,19.80
2018-12-29T04:05:08.344Z,25.07
2018-12-29T04:07:38.564Z,18.20
2018-12-29T04:10:11.107Z,21.33
2018-12-29T04:12:41.082Z,20.10
2018-12-29T04:15:10.766Z,20.20
2018-12-29T04:17:40.206Z,21.90
2018-12-29T04:20:09.465Z,19.57
2018-12-29T04:22:38.779Z,19.10
2018-12-29T04:25:08.001Z,21.30
2018-12-29T04:27:37.400Z,20.73
2018-12-29T04:30:06.741Z,20.30
2018-12-29T04:32:35.849Z,21.13
2018-12-29T04:35:05.921Z,20.47
2018-12-29T04:37:35.599Z,19.70
2018-12-29T04:40:05.209Z,23.93
2018-12-29T04:42:34.323Z,21.30
2018-12-29T04:45:04.220Z,22.13
2018-12-29T04:47:33.859Z,22.97
2018-12-29T04:50:03.490Z,22.47
2018-12-29T04:52:37.259Z,22.90
2018-12-29T04:55:06.561Z,20.93
2018-12-29T04:57:36.002Z,19.33
2018-12-29T05:00:06.549Z,20.70
2018-12-29T05:02:36.447Z,22.70
2018-12-29T05:05:09.320Z,20.80
2018-12-29T05:07:38.560Z,28.43
2018-12-29T05:10:07.839Z,20.90
2018-12-29T05:12:37.120Z,20.10
2018-12-29T05:15:07.400Z,21.13
2018-12-29T05:17:36.560Z,18.43
2018-12-29T05:20:05.763Z,16.77
2018-12-29T05:22:35.087Z,18.03
2018-12-29T05:25:04.262Z,17.43
2018-12-29T05:27:33.443Z,20.37
2018-12-29T05:30:02.523Z,20.13
2018-12-29T05:32:31.711Z,19.17
2018-12-29T05:35:01.452Z,17.17
2018-12-29T05:37:30.984Z,18.60
2018-12-29T05:40:00.391Z,17.80
2018-12-29T05:42:30.151Z,21.33
2018-12-29T05:44:59.624Z,18.20
2018-12-29T05:47:28.704Z,17.53
2018-12-29T05:49:57.943Z,17.40
2018-12-29T05:52:27.506Z,20.00
2018-12-29T05:54:56.963Z,16.83
2018-12-29T05:57:26.263Z,18.60
2018-12-29T05:59:56.941Z,19.03
2018-12-29T06:02:26.248Z,18.23
2018-12-29T06:04:55.388Z,18.73
2018-12-29T06:07:24.811Z,17.50
2018-12-29T06:09:54.568Z,18.50
2018-12-29T06:12:24.069Z,21.47
2018-12-29T06:14:53.389Z,18.60
2018-12-29T06:17:22.890Z,16.83
2018-12-29T06:19:52.329Z,16.70
2018-12-29T06:22:21.668Z,16.93
2018-12-29T06:24:50.774Z,19.23
2018-12-29T06:27:20.369Z,23.77
2018-12-29T06:30:01.940Z,30.87
2018-12-29T06:32:31.340Z,20.30
2018-12-29T06:35:01.240Z,15.80
2018-12-29T06:37:31.081Z,22.03
2018-12-29T06:40:00.336Z,18.80
2018-12-29T06:42:29.700Z,18.27
2018-12-29T06:44:59.181Z,17.43
2018-12-29T06:47:30.280Z,20.13
2018-12-29T06:49:59.700Z,18.80
2018-12-29T06:52:32.412Z,18.37
2018-12-29T06:55:02.219Z,14.97
2018-12-29T06:57:31.760Z,16.83
2018-12-29T07:00:00.927Z,15.33
2018-12-29T07:02:30.439Z,18.40
2018-12-29T07:05:00.000Z,17.50
2018-12-29T07:07:29.600Z,16.60
2018-12-29T07:09:59.660Z,16.63
2018-12-29T07:12:29.401Z,17.57
2018-12-29T07:14:58.648Z,18.43
2018-12-29T07:17:28.562Z,17.30
2018-12-29T07:19:59.740Z,15.80
2018-12-29T07:22:29.129Z,15.00
2018-12-29T07:24:58.881Z,16.10
2018-12-29T07:27:29.519Z,17.60
2018-12-29T07:29:58.740Z,16.37
2018-12-29T07:32:28.500Z,19.93
2018-12-29T07:34:58.560Z,18.77
2018-12-29T07:37:29.420Z,20.27
2018-12-29T07:39:58.940Z,15.90
2018-12-29T07:42:28.840Z,18.50
2018-12-29T07:44:58.060Z,16.10
2018-12-29T07:47:28.579Z,15.70
2018-12-29T07:49:58.399Z,19.80
2018-12-29T07:52:28.200Z,18.93
2018-12-29T07:54:57.600Z,15.20
2018-12-29T07:57:27.101Z,17.83
2018-12-29T07:59:56.482Z,16.77
2018-12-29T08:02:25.923Z,19.07
2018-12-29T08:04:55.407Z,17.17
2018-12-29T08:07:25.082Z,20.83
2018-12-29T08:09:54.103Z,14.77
2018-12-29T08:12:39.782Z,21.53
2018-12-29T08:15:09.279Z,20.13
2018-12-29T08:17:38.488Z,18.83
2018-12-29T08:20:07.880Z,21.57
2018-12-29T08:22:37.438Z,18.43
2018-12-29T08:25:06.989Z,18.20
2018-12-29T08:27:37.179Z,16.73
2018-12-29T08:30:07.827Z,14.87
2018-12-29T08:32:37.147Z,16.37
2018-12-29T08:35:06.821Z,12.53
2018-12-29T08:37:36.950Z,15.93
2018-12-29T08:40:06.658Z,16.87
2018-12-29T08:42:35.969Z,17.47
2018-12-29T08:45:05.332Z,17.17
2018-12-29T08:47:35.039Z,14.67
2018-12-29T08:50:12.753Z,14.77
2018-12-29T08:52:37.463Z,15.23
2018-12-29T08:55:06.680Z,15.33
2018-12-29T08:57:37.339Z,15.47
2018-12-29T09:00:09.078Z,17.93
2018-12-29T09:02:38.867Z,16.10
2018-12-29T09:05:08.476Z,15.53
2018-12-29T09:07:38.287Z,16.07
2018-12-29T09:10:07.687Z,13.70
2018-12-29T09:12:37.186Z,13.53
2018-12-29T09:15:07.107Z,14.30
2018-12-29T09:17:36.686Z,15.77
2018-12-29T09:20:07.685Z,16.93
2018-12-29T09:22:37.227Z,14.03
2018-12-29T09:25:06.769Z,15.73
2018-12-29T09:27:36.026Z,13.40
2018-12-29T09:30:07.651Z,16.43
2018-12-29T09:32:37.349Z,14.30
2018-12-29T09:35:07.475Z,16.27
2018-12-29T09:37:37.035Z,14.77
2018-12-29T09:40:07.692Z,15.17
2018-12-29T09:42:37.085Z,15.37
2018-12-29T09:45:07.304Z,14.13
2018-12-29T09:47:37.287Z,12.97
2018-12-29T09:50:07.627Z,12.80
2018-12-29T09:52:37.606Z,13.80
2018-12-29T09:55:07.187Z,13.33
2018-12-29T09:57:36.846Z,14.13
2018-12-29T10:00:08.454Z,13.80
2018-12-29T10:02:37.928Z,15.00
2018-12-29T10:05:07.280Z,16.17
2018-12-29T10:07:37.240Z,13.63
2018-12-29T10:10:06.678Z,14.00
2018-12-29T10:12:36.758Z,14.63
2018-12-29T10:15:07.618Z,13.87
2018-12-29T10:17:38.090Z,15.40
2018-12-29T10:20:08.798Z,13.13
2018-12-29T10:22:38.958Z,15.57
2018-12-29T10:25:08.759Z,14.30
2018-12-29T10:27:40.559Z,15.50
2018-12-29T10:30:10.639Z,14.33
2018-12-29T10:32:40.481Z,18.20
2018-12-29T10:35:10.079Z,15.33
2018-12-29T10:37:40.319Z,15.47
2018-12-29T10:40:10.519Z,15.60
2018-12-29T10:42:40.479Z,13.63
2018-12-29T10:45:10.579Z,12.50
2018-12-29T10:47:40.079Z,12.83
2018-12-29T10:50:10.303Z,13.93
2018-12-29T10:52:40.620Z,15.73
2018-12-29T10:55:10.099Z,13.47
2018-12-29T10:57:41.758Z,15.67
2018-12-29T11:00:12.495Z,18.03
2018-12-29T11:02:43.560Z,15.97
2018-12-29T11:05:13.002Z,17.67
2018-12-29T11:07:42.639Z,17.50
2018-12-29T11:10:12.479Z,19.07
2018-12-29T11:12:42.201Z,20.90
2018-12-29T11:15:11.409Z,20.63
2018-12-29T11:17:42.342Z,19.67
2018-12-29T11:20:15.049Z,19.80
2018-12-29T11:22:44.721Z,22.63
2018-12-29T11:25:14.481Z,19.27
2018-12-29T11:27:44.221Z,20.53
2018-12-29T11:30:13.779Z,20.83
2018-12-29T11:32:43.520Z,21.67
2018-12-29T11:35:13.280Z,18.93
2018-12-29T11:37:44.150Z,22.57
2018-12-29T11:40:13.440Z,22.50
2018-12-29T11:42:43.220Z,23.40
2018-12-29T11:45:12.669Z,25.37
2018-12-29T11:47:49.618Z,24.33
2018-12-29T11:50:12.898Z,27.57
2018-12-29T11:52:42.241Z,25.40
2018-12-29T11:55:11.539Z,24.53
2018-12-29T11:57:41.100Z,24.47
2018-12-29T12:00:10.797Z,26.87
2018-12-29T12:02:40.343Z,26.53
2018-12-29T12:05:10.922Z,25.07
2018-12-29T12:07:40.683Z,24.67
2018-12-29T12:10:09.983Z,26.73
2018-12-29T12:12:40.503Z,29.13
2018-12-29T12:15:10.623Z,30.87
2018-12-29T12:17:39.823Z,26.33
2018-12-29T12:20:11.523Z,25.73
2018-12-29T12:22:40.963Z,25.93
2018-12-29T12:25:10.464Z,27.33
2018-12-29T12:27:40.244Z,26.83
2018-12-29T12:30:09.821Z,25.90
2018-12-29T12:32:39.624Z,26.50
2018-12-29T12:35:17.904Z,24.03
2018-12-29T12:37:46.971Z,22.80
2018-12-29T12:40:16.303Z,26.33
2018-12-29T12:42:45.922Z,27.73
2018-12-29T12:45:15.663Z,29.60
2018-12-29T12:47:45.325Z,32.37
2018-12-29T12:50:15.063Z,32.27
2018-12-29T12:52:44.562Z,31.43
2018-12-29T12:55:14.442Z,28.97
2018-12-29T12:57:43.924Z,31.03
2018-12-29T13:00:13.534Z,25.43
2018-12-29T13:02:43.148Z,25.60
2018-12-29T13:05:12.328Z,26.67
2018-12-29T13:07:41.668Z,25.10
2018-12-29T13:10:10.970Z,24.20
2018-12-29T13:12:40.330Z,24.53
2018-12-29T13:15:09.453Z,25.43
2018-12-29T13:17:38.889Z,24.53
2018-12-29T13:20:08.207Z,22.00
2018-12-29T13:22:37.588Z,27.23
2018-12-29T13:25:06.836Z,24.53
2018-12-29T13:27:36.290Z,23.53
2018-12-29T13:30:24.649Z,29.87
2018-12-29T13:32:54.518Z,23.33
2018-12-29T13:35:24.389Z,25.83
2018-12-29T13:37:53.929Z,21.43
2018-12-29T13:40:23.609Z,24.63
2018-12-29T13:42:53.127Z,25.27
2018-12-29T13:45:22.739Z,25.10
2018-12-29T13:47:52.178Z,22.30
2018-12-29T13:50:23.641Z,23.37
2018-12-29T13:52:53.139Z,25.03
2018-12-29T13:55:22.881Z,23.70
2018-12-29T13:57:52.361Z,24.50
2018-12-29T14:00:22.513Z,21.40
2018-12-29T14:02:52.068Z,25.87
2018-12-29T14:05:21.967Z,25.73
2018-12-29T14:07:51.667Z,26.07
2018-12-29T14:10:21.127Z,23.30
2018-12-29T14:12:50.407Z,23.50
2018-12-29T14:15:19.648Z,27.27
2018-12-29T14:17:49.353Z,30.43
2018-12-29T14:20:18.782Z,26.23
2018-12-29T14:22:48.017Z,27.33
2018-12-29T14:25:17.417Z,24.93
2018-12-29T14:27:46.513Z,27.53
2018-12-29T14:30:15.618Z,27.33
2018-12-29T14:32:45.198Z,26.73
2018-12-29T14:35:14.940Z,26.07
2018-12-29T14:37:44.337Z,23.10
2018-12-29T14:40:15.089Z,22.50
2018-12-29T14:42:44.181Z,23.53
2018-12-29T14:45:13.508Z,24.80
2018-12-29T14:47:45.980Z,25.87
2018-12-29T14:50:15.677Z,25.47
2018-12-29T14:52:45.340Z,30.47
2018-12-29T14:55:14.870Z,26.00
2018-12-29T14:57:44.663Z,25.57
2018-12-29T15:00:13.800Z,28.63
2018-12-29T15:02:43.667Z,31.47
2018-12-29T15:05:13.406Z,31.47
2018-12-29T15:07:42.927Z,31.17
2018-12-29T15:10:12.549Z,30.17
2018-12-29T15:12:42.590Z,31.87
2018-12-29T15:15:12.971Z,34.77
2018-12-29T15:17:42.190Z,28.90
2018-12-29T15:20:14.749Z,30.40
2018-12-29T15:22:44.231Z,28.60
2018-12-29T15:25:14.010Z,31.87
2018-12-29T15:27:44.331Z,29.97
2018-12-29T15:30:14.110Z,33.83
2018-12-29T15:32:43.539Z,31.30
2018-12-29T15:35:13.920Z,29.67
2018-12-29T15:37:43.301Z,29.53
2018-12-29T15:40:13.118Z,29.00
2018-12-29T15:42:45.075Z,28.37
2018-12-29T15:45:13.899Z,26.50
2018-12-29T15:47:43.458Z,26.00
2018-12-29T15:50:13.699Z,30.57
2018-12-29T15:52:42.979Z,30.57
2018-12-29T15:55:15.577Z,35.50
2018-12-29T15:57:44.817Z,35.87
2018-12-29T16:00:13.927Z,33.07
2018-12-29T16:02:43.782Z,33.13
2018-12-29T16:05:13.369Z,34.67
2018-12-29T16:07:43.682Z,30.43
2018-12-29T16:10:13.502Z,31.00
2018-12-29T16:12:42.562Z,28.47
2018-12-29T16:15:12.721Z,29.17
2018-12-29T16:17:42.404Z,30.77
2018-12-29T16:20:12.139Z,28.50
2018-12-29T16:22:41.563Z,31.90
2018-12-29T16:25:10.683Z,30.60
2018-12-29T16:27:40.381Z,34.83
2018-12-29T16:30:09.600Z,35.77
2018-12-29T16:32:38.981Z,33.80
2018-12-29T16:35:08.498Z,34.67
2018-12-29T16:37:38.243Z,30.30
2018-12-29T16:40:07.755Z,39.77
2018-12-29T16:42:37.201Z,47.23
2018-12-29T16:45:13.920Z,45.30
2018-12-29T16:47:43.564Z,31.67
2018-12-29T16:50:14.160Z,34.80
2018-12-29T16:52:43.498Z,33.83
2018-12-29T16:55:13.658Z,29.83
2018-12-29T16:57:43.399Z,32.37
2018-12-29T17:00:12.878Z,31.30
2018-12-29T17:02:42.235Z,37.03
2018-12-29T17:05:12.321Z,36.10
2018-12-29T17:07:42.201Z,35.43
2018-12-29T17:10:11.531Z,38.17
2018-12-29T17:12:40.878Z,37.13
2018-12-29T17:15:11.166Z,39.20
2018-12-29T17:17:40.537Z,36.20
2018-12-29T17:20:09.922Z,35.90
2018-12-29T17:22:40.065Z,37.40
2018-12-29T17:25:09.243Z,33.27
2018-12-29T17:27:38.821Z,36.93
2018-12-29T17:30:09.620Z,38.60
2018-12-29T17:32:39.688Z,40.30
2018-12-29T17:35:09.134Z,38.97
2018-12-29T17:37:38.334Z,38.03
2018-12-29T17:40:08.326Z,39.87
2018-12-29T17:42:37.766Z,33.50
2018-12-29T17:45:07.706Z,33.50
2018-12-29T17:47:36.885Z,33.33
2018-12-29T17:50:07.168Z,34.30
2018-12-29T17:52:36.430Z,32.63
2018-12-29T17:55:06.086Z,31.03
2018-12-29T17:57:35.687Z,33.10
2018-12-29T18:00:06.678Z,46.20
2018-12-29T18:02:36.481Z,32.10
2018-12-29T18:05:05.882Z,37.97
2018-12-29T18:07:35.381Z,35.73
2018-12-29T18:10:05.760Z,36.43
2018-12-29T18:12:36.904Z,32.70
2018-12-29T18:15:06.583Z,32.70
2018-12-29T18:17:35.971Z,37.23
2018-12-29T18:20:06.082Z,36.53
2018-12-29T18:22:36.244Z,34.50
2018-12-29T18:25:06.023Z,38.47
2018-12-29T18:27:35.961Z,58.30
2018-12-29T18:30:06.621Z,67.50
2018-12-29T18:32:36.179Z,33.03
2018-12-29T18:35:05.742Z,31.40
2018-12-29T18:37:35.091Z,35.13
2018-12-29T18:40:06.080Z,32.23
2018-12-29T18:42:35.203Z,30.93
2018-12-29T18:45:04.864Z,32.50
2018-12-29T18:47:34.263Z,35.00
2018-12-29T18:50:04.403Z,38.93
2018-12-29T18:52:33.926Z,33.17
2018-12-29T18:55:03.643Z,36.57
2018-12-29T18:57:33.709Z,37.07
2018-12-29T19:00:03.240Z,31.40
2018-12-29T19:02:32.647Z,32.70
2018-12-29T19:05:01.766Z,28.33
2018-12-29T19:07:32.877Z,34.57
2018-12-29T19:10:02.921Z,31.83
2018-12-29T19:12:33.957Z,33.20
2018-12-29T19:15:03.214Z,32.87
2018-12-29T19:17:33.036Z,30.40
2018-12-29T19:20:02.937Z,32.57
2018-12-29T19:22:32.607Z,30.43
2018-12-29T19:25:01.786Z,31.10
2018-12-29T19:27:31.538Z,30.57
2018-12-29T19:30:00.790Z,30.20
2018-12-29T19:32:30.402Z,31.90
2018-12-29T19:35:00.322Z,33.07
2018-12-29T19:37:30.324Z,31.90
2018-12-29T19:40:00.273Z,33.87
2018-12-29T19:42:30.102Z,31.83
2018-12-29T19:44:59.410Z,34.43
2018-12-29T19:47:28.862Z,38.63
2018-12-29T19:49:59.040Z,39.13
2018-12-29T19:52:28.261Z,37.87
2018-12-29T19:54:57.482Z,40.20
2018-12-29T19:57:27.619Z,39.67
2018-12-29T19:59:57.361Z,42.83
2018-12-29T20:02:27.443Z,38.37
2018-12-29T20:04:56.885Z,42.73
2018-12-29T20:07:26.774Z,40.97
2018-12-29T20:09:55.905Z,41.07
2018-12-29T20:12:25.423Z,37.40
2018-12-29T20:14:54.910Z,37.67
2018-12-29T20:17:24.463Z,40.77
2018-12-29T20:20:01.258Z,40.27
2018-12-29T20:22:26.563Z,37.53
2018-12-29T20:24:55.684Z,41.97
2018-12-29T20:27:25.083Z,43.43
2018-12-29T20:29:54.543Z,39.60
2018-12-29T20:32:24.263Z,41.50
2018-12-29T20:34:54.164Z,47.60
2018-12-29T20:37:23.524Z,50.37
2018-12-29T20:39:52.551Z,46.30
2018-12-29T20:42:21.788Z,44.73
2018-12-29T20:44:51.599Z,42.20
2018-12-29T20:47:20.885Z,39.37
2018-12-29T20:49:50.481Z,44.67
2018-12-29T20:52:19.728Z,39.10
2018-12-29T20:54:48.959Z,40.43
2018-12-29T20:57:18.418Z,42.73
2018-12-29T20:59:47.958Z,40.93
2018-12-29T21:02:17.163Z,48.37
2018-12-29T21:04:46.760Z,49.33
2018-12-29T21:07:16.478Z,47.70
2018-12-29T21:09:46.336Z,43.43
2018-12-29T21:12:15.656Z,43.27
2018-12-29T21:14:45.037Z,49.93
2018-12-29T21:17:14.564Z,50.07
2018-12-29T21:19:43.617Z,53.30
2018-12-29T21:22:13.377Z,43.70
2018-12-29T21:24:42.503Z,50.07
2018-12-29T21:27:11.719Z,46.27
2018-12-29T21:29:41.453Z,46.20
2018-12-29T21:32:11.543Z,43.47
2018-12-29T21:34:40.779Z,43.20
2018-12-29T21:37:10.079Z,40.53
2018-12-29T21:39:39.319Z,44.23
2018-12-29T21:42:08.429Z,42.03
2018-12-29T21:44:37.798Z,40.67
2018-12-29T21:47:07.200Z,40.13
2018-12-29T21:49:36.442Z,46.20
2018-12-29T21:52:05.601Z,43.73
2018-12-29T21:54:35.260Z,45.20
2018-12-29T21:57:04.665Z,42.93
2018-12-29T21:59:34.241Z,41.27
2018-12-29T22:02:04.019Z,42.83
2018-12-29T22:04:33.317Z,41.53
2018-12-29T22:07:02.720Z,42.43
2018-12-29T22:09:33.197Z,45.93
2018-12-29T22:12:02.239Z,42.10
2018-12-29T22:14:32.438Z,45.10
2018-12-29T22:17:01.838Z,42.93
2018-12-29T22:19:33.201Z,49.20
2018-12-29T22:22:02.560Z,41.73
2018-12-29T22:24:31.917Z,43.07
2018-12-29T22:27:01.937Z,44.67
2018-12-29T22:29:31.197Z,40.27
2018-12-29T22:32:00.364Z,38.37
2018-12-29T22:34:29.780Z,42.17
2018-12-29T22:36:59.205Z,38.33
2018-12-29T22:39:28.957Z,35.33
2018-12-29T22:41:58.539Z,35.77
2018-12-29T22:44:29.010Z,39.53
2018-12-29T22:46:58.959Z,41.97
2018-12-29T22:49:28.319Z,39.23
2018-12-29T22:51:57.762Z,41.40
2018-12-29T22:54:26.962Z,44.67
2018-12-29T22:56:57.779Z,41.37
2018-12-29T22:59:27.258Z,44.20
2018-12-29T23:01:56.660Z,39.97
2018-12-29T23:04:26.961Z,42.90
2018-12-29T23:06:56.640Z,39.93
2018-12-29T23:09:26.080Z,44.27
2018-12-29T23:11:55.661Z,44.07
2018-12-29T23:14:24.843Z,40.37
2018-12-29T23:16:54.700Z,38.00
2018-12-29T23:19:24.077Z,39.63
2018-12-29T23:21:53.917Z,42.13
2018-12-29T23:24:23.041Z,37.30
2018-12-29T23:26:52.402Z,35.23
2018-12-29T23:29:22.159Z,39.67
2018-12-29T23:31:51.857Z,37.30
2018-12-29T23:34:20.979Z,38.67
2018-12-29T23:36:50.238Z,36.27
2018-12-29T23:39:19.359Z,41.63
2018-12-29T23:41:48.958Z,35.27
2018-12-29T23:44:18.557Z,42.80
2018-12-29T23:46:47.890Z,39.93
2018-12-29T23:49:16.984Z,38.27
2018-12-29T23:51:46.162Z,38.90
2018-12-29T23:54:15.264Z,42.07
2018-12-29T23:56:44.797Z,37.63
2018-12-29T23:59:14.628Z,43.20
